createdAt,value
2023-11-08T00:02:24.269Z,3.63
2023-11-08T00:04:51.286Z,3.15
2023-11-08T00:07:18.380Z,3.63
2023-11-08T00:09:45.494Z,3.40
2023-11-08T00:12:13.154Z,3.38
2023-11-08T00:14:41.139Z,3.80
2023-11-08T00:17:08.246Z,3.70
2023-11-08T00:19:35.348Z,3.63
2023-11-08T00:22:02.245Z,3.13
2023-11-08T00:24:29.245Z,3.20
2023-11-08T00:26:56.281Z,2.60
2023-11-08T00:29:24.291Z,2.97
2023-11-08T00:31:52.369Z,3.05
2023-11-08T00:34:21.121Z,2.70
2023-11-08T00:36:49.849Z,3.38
2023-11-08T00:39:19.678Z,2.30
2023-11-08T00:41:47.451Z,2.40
2023-11-08T00:44:14.706Z,2.63
2023-11-08T00:46:41.902Z,2.60
2023-11-08T00:49:08.993Z,2.50
2023-11-08T00:51:36.465Z,2.65
2023-11-08T00:54:04.062Z,2.63
2023-11-08T00:56:31.704Z,2.95
2023-11-08T00:58:59.079Z,3.17
2023-11-08T01:01:26.733Z,3.13
2023-11-08T01:03:55.950Z,2.72
2023-11-08T01:06:26.414Z,3.28
2023-11-08T01:08:53.610Z,2.72
2023-11-08T01:11:20.613Z,2.60
2023-11-08T01:13:47.750Z,3.20
2023-11-08T01:16:17.551Z,2.40
2023-11-08T01:18:45.153Z,2.97
2023-11-08T01:21:12.190Z,2.85
2023-11-08T01:23:39.784Z,3.30
2023-11-08T01:26:09.107Z,3.42
2023-11-08T01:28:37.195Z,2.42
2023-11-08T01:31:04.946Z,3.08
2023-11-08T01:33:32.441Z,2.78
2023-11-08T01:35:59.624Z,2.65
2023-11-08T01:38:26.713Z,2.70
2023-11-08T01:40:53.734Z,3.03
2023-11-08T01:43:30.979Z,3.42
2023-11-08T01:46:22.867Z,4.05
2023-11-08T01:48:53.185Z,4.22
2023-11-08T01:51:22.055Z,3.10
2023-11-08T01:53:50.406Z,3.03
2023-11-08T01:56:18.769Z,3.30
2023-11-08T01:58:46.679Z,3.28
2023-11-08T02:01:14.033Z,3.60
2023-11-08T02:03:42.414Z,3.45
2023-11-08T02:06:12.638Z,3.67
2023-11-08T02:08:41.517Z,3.33
2023-11-08T02:11:10.067Z,3.78
2023-11-08T02:13:37.137Z,3.42
2023-11-08T02:16:04.699Z,3.38
2023-11-08T02:18:34.469Z,2.70
2023-11-08T02:21:02.591Z,2.70
2023-11-08T02:23:32.953Z,2.88
2023-11-08T02:26:00.211Z,3.20
2023-11-08T02:28:27.806Z,3.88
2023-11-08T02:30:56.630Z,3.42
2023-11-08T02:33:28.400Z,3.78
2023-11-08T02:35:56.044Z,4.05
2023-11-08T02:38:23.153Z,3.90
2023-11-08T02:40:50.264Z,3.35
2023-11-08T02:43:17.695Z,3.83
2023-11-08T02:45:45.730Z,4.15
2023-11-08T02:48:12.750Z,3.75
2023-11-08T02:50:42.947Z,2.95
2023-11-08T02:53:10.279Z,4.18
2023-11-08T02:55:40.617Z,3.92
2023-11-08T02:58:07.803Z,3.38
2023-11-08T03:00:34.975Z,3.65
2023-11-08T03:03:02.059Z,2.85
2023-11-08T03:05:29.265Z,3.42
2023-11-08T03:07:56.345Z,3.22
2023-11-08T03:10:23.821Z,3.45
2023-11-08T03:12:52.841Z,3.22
2023-11-08T03:15:24.198Z,3.40
2023-11-08T03:17:52.865Z,3.28
2023-11-08T03:20:20.725Z,3.08
2023-11-08T03:22:49.203Z,2.72
2023-11-08T03:25:18.704Z,3.92
2023-11-08T03:27:48.220Z,3.15
2023-11-08T03:30:18.241Z,3.13
2023-11-08T03:32:45.804Z,2.63
2023-11-08T03:35:15.906Z,2.53
2023-11-08T03:37:45.751Z,1.83
2023-11-08T03:40:14.233Z,1.77
2023-11-08T03:42:42.709Z,2.17
2023-11-08T03:45:10.781Z,1.85
2023-11-08T03:47:39.548Z,1.52
2023-11-08T03:50:08.410Z,1.75
2023-11-08T03:52:35.643Z,1.42
2023-11-08T03:55:02.641Z,1.52
2023-11-08T03:57:30.781Z,2.10
2023-11-08T03:59:58.034Z,1.80
2023-11-08T04:02:26.233Z,2.00
2023-11-08T04:04:53.404Z,2.00
2023-11-08T04:07:20.843Z,2.40
2023-11-08T04:09:49.100Z,2.00
2023-11-08T04:12:16.825Z,2.13
2023-11-08T04:14:44.141Z,2.40
2023-11-08T04:17:11.898Z,1.70
2023-11-08T04:19:39.316Z,1.83
2023-11-08T04:22:07.359Z,2.47
2023-11-08T04:24:34.988Z,2.00
2023-11-08T04:27:03.996Z,2.00
2023-11-08T04:29:32.816Z,2.03
2023-11-08T04:32:00.144Z,1.92
2023-11-08T04:34:27.170Z,1.70
2023-11-08T04:36:54.365Z,1.77
2023-11-08T04:39:23.627Z,2.08
2023-11-08T04:41:51.928Z,2.10
2023-11-08T04:44:20.482Z,1.85
2023-11-08T04:46:47.991Z,2.10
2023-11-08T04:49:15.858Z,2.28
2023-11-08T04:51:43.797Z,2.10
2023-11-08T04:54:11.072Z,2.28
2023-11-08T04:56:38.197Z,3.05
2023-11-08T04:59:06.994Z,5.03
2023-11-08T05:01:34.016Z,6.07
2023-11-08T05:04:01.894Z,6.05
2023-11-08T05:06:29.189Z,5.75
2023-11-08T05:08:57.303Z,6.93
2023-11-08T05:11:24.348Z,6.60
2023-11-08T05:13:51.506Z,6.28
2023-11-08T05:16:24.781Z,5.63
2023-11-08T05:18:52.942Z,4.75
2023-11-08T05:21:21.991Z,5.00
2023-11-08T05:23:49.122Z,3.83
2023-11-08T05:26:17.499Z,3.70
2023-11-08T05:28:44.500Z,3.45
2023-11-08T05:31:12.170Z,2.90
2023-11-08T05:33:42.948Z,2.80
2023-11-08T05:36:10.176Z,2.78
2023-11-08T05:38:38.733Z,2.60
2023-11-08T05:41:06.336Z,2.88
2023-11-08T05:43:33.306Z,2.67
2023-11-08T05:46:00.388Z,2.17
2023-11-08T05:48:27.441Z,2.33
2023-11-08T05:50:54.546Z,2.63
2023-11-08T05:53:23.665Z,3.17
2023-11-08T05:55:50.709Z,2.42
2023-11-08T05:58:17.575Z,2.63
2023-11-08T06:00:44.957Z,3.03
2023-11-08T06:03:12.085Z,2.33
2023-11-08T06:05:39.229Z,2.47
2023-11-08T06:08:06.200Z,2.22
2023-11-08T06:10:34.849Z,2.58
2023-11-08T06:13:03.757Z,2.80
2023-11-08T06:15:30.854Z,2.33
2023-11-08T06:17:58.428Z,3.08
2023-11-08T06:20:25.554Z,3.00
2023-11-08T06:22:52.507Z,2.70
2023-11-08T06:25:19.920Z,2.60
2023-11-08T06:27:48.876Z,3.17
2023-11-08T06:30:18.053Z,2.35
2023-11-08T06:32:45.178Z,2.35
2023-11-08T06:35:12.192Z,2.95
2023-11-08T06:37:39.620Z,2.85
2023-11-08T06:40:08.962Z,2.20
2023-11-08T06:42:36.455Z,2.10
2023-11-08T06:45:05.594Z,2.70
2023-11-08T06:47:32.941Z,2.47
2023-11-08T06:50:00.668Z,2.70
2023-11-08T06:52:27.949Z,3.08
2023-11-08T06:54:55.879Z,2.03
2023-11-08T06:57:23.214Z,3.05
2023-11-08T06:59:50.604Z,2.58
2023-11-08T07:02:17.811Z,3.10
2023-11-08T07:04:45.159Z,3.78
2023-11-08T07:07:13.005Z,3.03
2023-11-08T07:09:40.676Z,3.13
2023-11-08T07:12:10.270Z,3.63
2023-11-08T07:14:38.473Z,3.15
2023-11-08T07:17:07.889Z,3.13
2023-11-08T07:19:35.612Z,3.45
2023-11-08T07:22:02.829Z,3.05
2023-11-08T07:24:30.580Z,3.72
2023-11-08T07:26:58.522Z,3.13
2023-11-08T07:29:26.129Z,3.08
2023-11-08T07:31:53.702Z,3.20
2023-11-08T07:34:24.124Z,3.25
2023-11-08T07:36:52.686Z,3.30
2023-11-08T07:39:27.048Z,3.50
2023-11-08T07:41:55.386Z,2.92
2023-11-08T07:44:22.461Z,3.22
2023-11-08T07:46:49.532Z,2.92
2023-11-08T07:49:17.322Z,3.17
2023-11-08T07:51:45.246Z,3.08
2023-11-08T07:54:12.342Z,2.85
2023-11-08T07:56:39.539Z,3.15
2023-11-08T07:59:06.780Z,2.55
2023-11-08T08:01:34.020Z,3.08
2023-11-08T08:04:01.455Z,2.72
2023-11-08T08:06:28.853Z,3.28
2023-11-08T08:08:58.213Z,3.00
2023-11-08T08:11:25.190Z,3.22
2023-11-08T08:13:53.620Z,3.33
2023-11-08T08:16:23.383Z,2.92
2023-11-08T08:18:50.535Z,3.28
2023-11-08T08:21:18.332Z,3.25
2023-11-08T08:23:51.555Z,3.10
2023-11-08T08:26:25.224Z,2.72
2023-11-08T08:28:52.196Z,2.63
2023-11-08T08:31:19.780Z,3.58
2023-11-08T08:33:46.882Z,2.80
2023-11-08T08:36:13.947Z,2.70
2023-11-08T08:38:41.314Z,2.45
2023-11-08T08:41:08.430Z,3.20
2023-11-08T08:43:36.290Z,2.38
2023-11-08T08:46:03.409Z,3.13
2023-11-08T08:48:30.484Z,2.95
2023-11-08T08:50:57.533Z,3.45
2023-11-08T08:53:25.575Z,2.92
2023-11-08T08:55:52.635Z,3.67
2023-11-08T08:58:19.592Z,4.15
2023-11-08T09:00:46.569Z,2.75
2023-11-08T09:03:16.229Z,2.83
2023-11-08T09:05:43.667Z,3.35
2023-11-08T09:08:10.566Z,2.72
2023-11-08T09:10:38.567Z,2.65
2023-11-08T09:13:06.422Z,2.72
2023-11-08T09:15:33.663Z,2.47
2023-11-08T09:18:00.748Z,2.78
2023-11-08T09:20:27.778Z,2.70
2023-11-08T09:22:55.052Z,2.60
2023-11-08T09:25:22.441Z,3.15
2023-11-08T09:27:49.530Z,3.15
2023-11-08T09:30:16.945Z,2.65
2023-11-08T09:32:46.444Z,2.83
2023-11-08T09:35:13.697Z,2.80
2023-11-08T09:37:40.718Z,3.00
2023-11-08T09:40:12.026Z,3.92
2023-11-08T09:42:39.889Z,2.85
2023-11-08T09:45:13.079Z,3.20
2023-11-08T09:47:41.897Z,3.35
2023-11-08T09:50:16.026Z,3.10
2023-11-08T09:52:43.456Z,3.20
2023-11-08T09:55:13.741Z,2.83
2023-11-08T09:57:44.818Z,3.25
2023-11-08T10:00:13.209Z,3.65
2023-11-08T10:02:41.467Z,2.70
2023-11-08T10:05:09.499Z,3.40
2023-11-08T10:07:39.194Z,3.88
2023-11-08T10:10:08.192Z,3.38
2023-11-08T10:12:35.355Z,3.80
2023-11-08T10:15:07.832Z,3.55
2023-11-08T10:19:31.228Z,3.72
2023-11-08T10:22:59.319Z,4.22
2023-11-08T10:25:28.640Z,4.03
2023-11-08T10:28:07.044Z,3.92
2023-11-08T10:30:38.472Z,3.35
2023-11-08T10:33:15.748Z,3.45
2023-11-08T10:35:44.530Z,3.60
2023-11-08T10:38:12.232Z,4.15
2023-11-08T10:40:39.520Z,3.72
2023-11-08T10:43:07.013Z,3.33
2023-11-08T10:45:34.557Z,3.78
2023-11-08T10:48:01.983Z,4.05
2023-11-08T10:50:30.113Z,3.67
2023-11-08T10:52:58.404Z,3.40
2023-11-08T10:55:27.340Z,3.65
2023-11-08T10:57:58.827Z,3.88
2023-11-08T11:00:27.610Z,3.08
2023-11-08T11:03:02.055Z,3.17
2023-11-08T11:05:32.200Z,3.73
2023-11-08T11:08:01.773Z,3.53
2023-11-08T11:10:29.631Z,4.00
2023-11-08T11:13:05.640Z,3.00
2023-11-08T11:15:54.983Z,3.67
2023-11-08T11:18:28.753Z,3.40
2023-11-08T11:21:02.829Z,3.13
2023-11-08T11:23:42.879Z,3.67
2023-11-08T11:26:13.250Z,3.72
2023-11-08T11:28:54.819Z,3.50
2023-11-08T11:31:39.234Z,4.32
2023-11-08T11:34:21.761Z,4.10
2023-11-08T11:37:13.678Z,3.80
2023-11-08T11:39:41.818Z,3.47
2023-11-08T11:42:20.381Z,3.55
2023-11-08T11:44:52.953Z,4.07
2023-11-08T11:47:31.710Z,3.97
2023-11-08T11:50:10.029Z,4.68
2023-11-08T11:52:38.601Z,4.88
2023-11-08T11:55:08.264Z,4.38
2023-11-08T11:57:36.707Z,4.55
2023-11-08T12:00:06.467Z,5.05
2023-11-08T12:02:37.296Z,5.05
2023-11-08T12:05:06.616Z,5.15
2023-11-08T12:07:38.580Z,4.85
2023-11-08T12:10:12.164Z,4.97
2023-11-08T12:12:41.252Z,5.03
2023-11-08T12:15:16.275Z,4.45
2023-11-08T12:17:55.130Z,5.53
2023-11-08T12:20:25.676Z,5.07
2023-11-08T12:22:54.221Z,5.38
2023-11-08T12:25:22.724Z,5.47
2023-11-08T12:27:57.946Z,5.65
2023-11-08T12:30:27.114Z,5.22
2023-11-08T12:32:57.663Z,5.60
2023-11-08T12:35:25.138Z,5.10
2023-11-08T12:37:58.488Z,4.82
2023-11-08T12:40:25.575Z,4.53
2023-11-08T12:42:55.244Z,5.45
2023-11-08T12:46:35.017Z,5.70
2023-11-08T12:48:31.583Z,4.70
2023-11-08T12:51:16.898Z,5.63
2023-11-08T12:53:50.065Z,6.00
2023-11-08T12:56:17.141Z,5.55
2023-11-08T12:58:44.019Z,4.78
2023-11-08T13:01:19.562Z,4.50
2023-11-08T13:03:46.672Z,4.80
2023-11-08T13:06:13.629Z,4.95
2023-11-08T13:08:41.070Z,4.47
2023-11-08T13:11:08.175Z,4.47
2023-11-08T13:13:36.246Z,4.20
2023-11-08T13:16:04.520Z,4.35
2023-11-08T13:18:31.682Z,4.50
2023-11-08T13:20:58.808Z,5.25
2023-11-08T13:24:00.607Z,4.28
2023-11-08T13:26:15.392Z,5.55
2023-11-08T13:28:45.289Z,5.20
2023-11-08T13:31:16.703Z,4.93
2023-11-08T13:33:48.308Z,4.47
2023-11-08T13:36:19.915Z,4.72
2023-11-08T13:38:47.144Z,4.63
2023-11-08T13:41:14.572Z,4.57
2023-11-08T13:43:41.865Z,4.18
2023-11-08T13:46:09.640Z,6.18
2023-11-08T13:48:37.177Z,4.30
2023-11-08T13:51:08.206Z,4.00
2023-11-08T13:53:36.854Z,5.63
2023-11-08T13:56:05.692Z,4.80
2023-11-08T13:58:35.647Z,5.32
2023-11-08T14:01:10.119Z,4.75
2023-11-08T14:03:38.753Z,5.60
2023-11-08T14:06:07.758Z,5.10
2023-11-08T14:08:35.945Z,5.40
2023-11-08T14:11:03.210Z,6.90
2023-11-08T14:13:30.544Z,7.35
2023-11-08T14:15:57.903Z,7.18
2023-11-08T14:18:25.373Z,4.43
2023-11-08T14:20:54.648Z,4.95
2023-11-08T14:23:22.658Z,5.22
2023-11-08T14:25:51.945Z,5.53
2023-11-08T14:28:20.525Z,5.43
2023-11-08T14:30:48.109Z,6.32
2023-11-08T14:33:17.689Z,5.13
2023-11-08T14:35:44.822Z,5.93
2023-11-08T14:38:12.258Z,5.75
2023-11-08T14:40:39.459Z,5.10
2023-11-08T14:43:06.831Z,4.85
2023-11-08T14:45:34.063Z,5.90
2023-11-08T14:48:01.685Z,4.97
2023-11-08T14:50:29.104Z,5.40
2023-11-08T14:52:56.651Z,5.25
2023-11-08T14:55:24.550Z,5.70
2023-11-08T14:57:51.974Z,5.65
2023-11-08T15:00:20.801Z,5.57
2023-11-08T15:02:48.162Z,5.80
2023-11-08T15:05:15.772Z,6.15
2023-11-08T15:09:43.217Z,5.30
2023-11-08T15:10:30.426Z,5.63
2023-11-08T15:12:59.128Z,6.35
2023-11-08T15:15:26.827Z,5.30
2023-11-08T15:17:53.995Z,6.18
2023-11-08T15:20:22.455Z,5.90
2023-11-08T15:23:00.088Z,6.38
2023-11-08T15:25:27.361Z,5.93
2023-11-08T15:27:54.357Z,5.75
2023-11-08T15:30:21.362Z,5.60
2023-11-08T15:32:48.513Z,5.90
2023-11-08T15:35:15.895Z,5.10
2023-11-08T15:37:42.798Z,5.72
2023-11-08T15:40:12.782Z,5.15
2023-11-08T15:42:39.859Z,5.15
2023-11-08T15:45:08.103Z,5.32
2023-11-08T15:47:35.366Z,5.55
2023-11-08T15:50:02.375Z,5.20
2023-11-08T15:52:29.980Z,5.40
2023-11-08T15:54:57.191Z,5.13
2023-11-08T15:57:26.879Z,5.32
2023-11-08T15:59:55.456Z,5.90
2023-11-08T16:02:23.408Z,5.93
2023-11-08T16:04:50.819Z,5.03
2023-11-08T16:07:18.211Z,4.93
2023-11-08T16:09:46.208Z,4.95
2023-11-08T16:12:13.200Z,5.07
2023-11-08T16:14:40.166Z,4.88
2023-11-08T16:17:08.715Z,5.93
2023-11-08T16:19:35.987Z,5.13
2023-11-08T16:22:03.150Z,4.47
2023-11-08T16:24:30.133Z,5.20
2023-11-08T16:26:57.100Z,5.40
2023-11-08T16:29:50.541Z,4.68
2023-11-08T16:32:34.765Z,5.20
2023-11-08T16:35:00.972Z,4.93
2023-11-08T16:37:28.072Z,5.53
2023-11-08T16:39:55.017Z,6.20
2023-11-08T16:42:23.240Z,5.93
2023-11-08T16:44:50.822Z,5.97
2023-11-08T16:47:17.987Z,5.70
2023-11-08T16:49:47.667Z,5.25
2023-11-08T16:52:14.808Z,5.22
2023-11-08T16:54:41.986Z,5.05
2023-11-08T16:57:10.679Z,5.97
2023-11-08T16:59:38.874Z,5.47
2023-11-08T17:02:06.111Z,6.00
2023-11-08T17:04:40.011Z,5.90
2023-11-08T17:07:07.343Z,6.40
2023-11-08T17:09:35.591Z,6.15
2023-11-08T17:12:03.289Z,6.55
2023-11-08T17:14:30.682Z,5.93
2023-11-08T17:16:57.978Z,6.60
2023-11-08T17:19:25.140Z,6.20
2023-11-08T17:21:52.897Z,5.72
2023-11-08T17:24:19.913Z,5.95
2023-11-08T17:26:46.946Z,5.97
2023-11-08T17:29:14.433Z,6.05
2023-11-08T17:31:41.678Z,6.03
2023-11-08T17:34:08.912Z,6.35
2023-11-08T17:36:35.912Z,6.40
2023-11-08T17:39:02.875Z,5.85
2023-11-08T17:41:30.069Z,6.03
2023-11-08T17:43:56.944Z,5.97
2023-11-08T17:46:23.896Z,6.70
2023-11-08T17:48:50.926Z,6.60
2023-11-08T17:51:18.207Z,6.28
2023-11-08T17:53:46.474Z,5.93
2023-11-08T17:56:13.574Z,6.60
2023-11-08T17:58:40.718Z,6.03
2023-11-08T18:01:07.797Z,6.40
2023-11-08T18:03:37.641Z,7.10
2023-11-08T18:06:05.460Z,6.55
2023-11-08T18:08:32.511Z,6.53
2023-11-08T18:11:01.844Z,5.78
2023-11-08T18:13:30.361Z,6.03
2023-11-08T18:15:57.389Z,6.38
2023-11-08T18:18:24.328Z,6.32
2023-11-08T18:20:51.734Z,6.15
2023-11-08T18:23:18.751Z,5.97
2023-11-08T18:25:46.776Z,5.88
2023-11-08T18:28:14.010Z,5.30
2023-11-08T18:30:41.320Z,5.75
2023-11-08T18:33:08.324Z,5.57
2023-11-08T18:35:36.657Z,5.55
2023-11-08T18:38:04.424Z,5.30
2023-11-08T18:40:31.411Z,5.68
2023-11-08T18:42:58.368Z,5.50
2023-11-08T18:45:25.447Z,5.05
2023-11-08T18:47:52.395Z,4.97
2023-11-08T18:50:20.643Z,5.35
2023-11-08T18:52:51.303Z,5.18
2023-11-08T18:55:18.455Z,4.75
2023-11-08T18:57:45.542Z,4.75
2023-11-08T19:00:13.137Z,9.02
2023-11-08T19:02:41.286Z,4.93
2023-11-08T19:05:08.889Z,4.97
2023-11-08T19:07:35.867Z,4.93
2023-11-08T19:10:04.944Z,4.78
2023-11-08T19:12:33.333Z,5.35
2023-11-08T19:15:00.313Z,5.00
2023-11-08T19:17:27.437Z,5.28
2023-11-08T19:19:54.430Z,5.43
2023-11-08T19:22:21.747Z,5.68
2023-11-08T19:24:48.911Z,4.68
2023-11-08T19:27:15.905Z,4.68
2023-11-08T19:29:42.962Z,5.10
2023-11-08T19:32:09.961Z,4.32
2023-11-08T19:34:37.051Z,3.55
2023-11-08T19:37:04.209Z,4.50
2023-11-08T19:39:31.222Z,4.30
2023-11-08T19:41:58.225Z,3.90
2023-11-08T19:44:25.333Z,4.32
2023-11-08T19:46:52.413Z,4.32
2023-11-08T19:49:19.458Z,3.95
2023-11-08T19:51:47.356Z,4.38
2023-11-08T19:54:14.473Z,4.07
2023-11-08T19:56:41.424Z,3.75
2023-11-08T19:59:08.406Z,3.90
2023-11-08T20:01:35.560Z,4.57
2023-11-08T20:04:02.644Z,3.95
2023-11-08T20:06:29.633Z,3.88
2023-11-08T20:08:56.960Z,4.50
2023-11-08T20:11:23.967Z,4.55
2023-11-08T20:13:50.994Z,3.80
2023-11-08T20:16:17.960Z,4.30
2023-11-08T20:18:45.027Z,4.20
2023-11-08T20:21:13.228Z,4.07
2023-11-08T20:23:40.303Z,4.60
2023-11-08T20:26:07.413Z,4.25
2023-11-08T20:28:37.363Z,4.20
2023-11-08T20:31:06.021Z,4.80
2023-11-08T20:33:33.237Z,4.05
2023-11-08T20:36:00.804Z,4.78
2023-11-08T20:38:28.481Z,3.90
2023-11-08T20:40:56.418Z,3.88
2023-11-08T20:43:23.920Z,4.68
2023-11-08T20:45:50.960Z,4.20
2023-11-08T20:48:17.871Z,4.43
2023-11-08T20:50:44.888Z,4.07
2023-11-08T20:53:12.014Z,4.50
2023-11-08T20:55:39.520Z,4.40
2023-11-08T20:58:07.401Z,3.85
2023-11-08T21:00:34.879Z,4.22
2023-11-08T21:03:04.044Z,4.13
2023-11-08T21:05:31.262Z,4.28
2023-11-08T21:07:58.213Z,4.65
2023-11-08T21:10:25.360Z,5.18
2023-11-08T21:12:52.391Z,4.60
2023-11-08T21:15:19.714Z,4.10
2023-11-08T21:17:47.048Z,4.78
2023-11-08T21:20:15.603Z,4.95
2023-11-08T21:22:43.192Z,4.72
2023-11-08T21:25:10.997Z,4.43
2023-11-08T21:27:38.293Z,3.95
2023-11-08T21:30:08.148Z,3.85
2023-11-08T21:32:37.078Z,4.68
2023-11-08T21:35:04.400Z,4.45
2023-11-08T21:37:31.508Z,4.53
2023-11-08T21:39:58.399Z,4.30
2023-11-08T21:42:25.374Z,4.30
2023-11-08T21:44:52.827Z,4.28
2023-11-08T21:47:19.785Z,4.20
2023-11-08T21:49:47.591Z,3.83
2023-11-08T21:52:14.779Z,4.18
2023-11-08T21:54:42.767Z,3.78
2023-11-08T21:57:10.866Z,4.10
2023-11-08T21:59:38.151Z,3.90
2023-11-08T22:02:07.512Z,3.95
2023-11-08T22:04:35.595Z,3.90
2023-11-08T22:07:03.114Z,4.07
2023-11-08T22:09:30.072Z,3.72
2023-11-08T22:11:57.233Z,4.18
2023-11-08T22:14:24.204Z,3.80
2023-11-08T22:16:51.175Z,4.35
2023-11-08T22:19:18.572Z,4.45
2023-11-08T22:21:45.827Z,3.88
2023-11-08T22:24:13.710Z,4.18
2023-11-08T22:26:40.959Z,4.20
2023-11-08T22:29:08.446Z,4.00
2023-11-08T22:31:38.751Z,4.10
2023-11-08T22:34:05.882Z,4.05
2023-11-08T22:36:33.333Z,4.15
2023-11-08T22:39:02.026Z,3.70
2023-11-08T22:41:29.136Z,3.88
2023-11-08T22:43:56.412Z,4.10
2023-11-08T22:46:23.483Z,4.20
2023-11-08T22:48:50.739Z,3.67
2023-11-08T22:51:21.531Z,3.70
2023-11-08T22:53:50.410Z,3.97
2023-11-08T22:56:17.537Z,4.20
2023-11-08T22:58:44.914Z,4.25
2023-11-08T23:01:11.823Z,3.75
2023-11-08T23:03:39.786Z,3.55
2023-11-08T23:06:07.137Z,4.10
2023-11-08T23:08:34.076Z,4.43
2023-11-08T23:11:00.946Z,3.80
2023-11-08T23:13:28.103Z,3.60
2023-11-08T23:15:55.118Z,3.50
2023-11-08T23:18:22.084Z,3.80
2023-11-08T23:20:49.167Z,3.42
2023-11-08T23:23:16.125Z,4.07
2023-11-08T23:25:43.083Z,3.60
2023-11-08T23:28:10.165Z,3.17
2023-11-08T23:30:37.078Z,3.08
2023-11-08T23:33:05.040Z,3.65
2023-11-08T23:35:32.185Z,4.15
2023-11-08T23:37:59.900Z,3.40
2023-11-08T23:40:26.820Z,2.92
2023-11-08T23:42:53.962Z,2.67
2023-11-08T23:45:21.145Z,2.40
2023-11-08T23:47:49.557Z,1.23
2023-11-08T23:50:17.595Z,1.02
2023-11-08T23:52:46.903Z,1.00
2023-11-08T23:55:14.368Z,1.13
2023-11-08T23:57:41.903Z,1.20
